Time;durP1;ratioP1;P1;durP2;ratioP2;P2;SDS_P1;SDS_P2;PMS_P1;PMS_P2;Temp;Humidity;BMP_temperature;BMP_pressure;BME280_temperature;BME280_humidity;BME280_pressure;Samples;Min_cycle;Max_cycle;Signal;HPM_P1;HPM_P2
2023/10/12 00:01:58;;;;;;;5.10;3.63;;;18.20;77.70;;;;;;5001162;28;20053;-77
2023/10/12 00:04:29;;;;;;;4.43;3.78;;;18.20;77.60;;;;;;5022819;28;20400;-78
2023/10/12 00:06:55;;;;;;;5.80;3.58;;;18.10;77.30;;;;;;5006443;28;20311;-78
2023/10/12 00:09:26;;;;;;;4.90;3.60;;;18.00;77.10;;;;;;5013206;28;20412;-78
2023/10/12 00:11:57;;;;;;;3.30;3.00;;;18.00;77.20;;;;;;5015382;28;20064;-78
2023/10/12 00:14:32;;;;;;;3.80;3.42;;;17.90;76.90;;;;;;5016392;28;20060;-78
2023/10/12 00:16:59;;;;;;;3.85;3.28;;;17.90;76.90;;;;;;5022198;28;20039;-78
2023/10/12 00:19:25;;;;;;;4.55;3.42;;;17.90;76.90;;;;;;5018298;28;20536;-78
2023/10/12 00:22:02;;;;;;;3.55;3.25;;;17.80;76.60;;;;;;5017510;28;20073;-78
2023/10/12 00:24:30;;;;;;;4.80;4.20;;;17.70;76.40;;;;;;5025184;28;20088;-77
2023/10/12 00:26:58;;;;;;;4.28;3.72;;;17.70;76.40;;;;;;5022855;28;20220;-78
2023/10/12 00:29:24;;;;;;;4.13;3.50;;;17.70;76.40;;;;;;5006927;28;20140;-78
2023/10/12 00:31:52;;;;;;;4.50;3.35;;;17.60;76.10;;;;;;5024381;28;20287;-78
2023/10/12 00:34:23;;;;;;;4.85;3.28;;;17.60;76.20;;;;;;5018562;28;20057;-78
2023/10/12 00:36:52;;;;;;;3.97;3.20;;;17.60;76.70;;;;;;5021164;28;20498;-78
2023/10/12 00:39:29;;;;;;;4.22;3.40;;;17.50;76.00;;;;;;5029363;28;20698;-78
2023/10/12 00:41:55;;;;;;;5.47;4.10;;;17.50;76.00;;;;;;5021842;28;20055;-78
2023/10/12 00:44:26;;;;;;;3.92;2.88;;;17.50;76.00;;;;;;5020262;28;20041;-78
2023/10/12 00:46:59;;;;;;;4.25;3.40;;;17.40;75.80;;;;;;5011928;28;20038;-78
2023/10/12 00:49:27;;;;;;;3.20;2.90;;;17.40;75.80;;;;;;5017234;28;20037;-78
2023/10/12 00:52:08;;;;;;;5.75;3.35;;;17.30;75.60;;;;;;5018201;28;20060;-78
2023/10/12 00:57:10;;;;;;;3.22;2.92;;;17.30;75.60;;;;;;5015180;28;20060;-78
2023/10/12 00:59:40;;;;;;;3.38;3.08;;;17.20;75.50;;;;;;5014959;28;20032;-78
2023/10/12 01:02:15;;;;;;;4.22;3.00;;;17.20;75.40;;;;;;5018793;28;20243;-78
2023/10/12 01:04:41;;;;;;;3.92;3.55;;;17.20;75.50;;;;;;5003113;28;20048;-78
2023/10/12 01:07:10;;;;;;;4.78;2.72;;;17.20;75.40;;;;;;5017172;28;20036;-78
2023/10/12 01:09:39;;;;;;;3.95;3.22;;;17.10;75.30;;;;;;5022973;28;20025;-78
2023/10/12 01:12:16;;;;;;;3.25;2.38;;;17.10;75.20;;;;;;5006696;28;20045;-78
2023/10/12 01:14:43;;;;;;;5.03;2.92;;;17.10;75.20;;;;;;5012314;28;20123;-78
2023/10/12 01:17:16;;;;;;;3.50;2.53;;;17.00;75.00;;;;;;5021088;28;20075;-78
2023/10/12 01:19:46;;;;;;;3.08;2.65;;;17.00;74.90;;;;;;5014435;28;20391;-78
2023/10/12 01:22:14;;;;;;;3.08;2.78;;;16.90;74.80;;;;;;5028473;28;20111;-78
2023/10/12 01:27:16;;;;;;;3.60;2.53;;;16.90;74.80;;;;;;5023433;28;20037;-78
2023/10/12 01:29:43;;;;;;;3.53;2.60;;;16.80;74.70;;;;;;5021829;28;20119;-77
2023/10/12 01:34:38;;;;;;;3.00;2.40;;;16.80;74.70;;;;;;5019622;28;20021;-78
2023/10/12 01:37:11;;;;;;;3.25;2.95;;;16.80;74.80;;;;;;5026080;28;20029;-79
2023/10/12 01:39:51;;;;;;;3.17;2.70;;;16.80;74.80;;;;;;5022440;28;20536;-78
2023/10/12 01:42:20;;;;;;;3.42;2.40;;;16.70;74.50;;;;;;5001857;28;20037;-78
2023/10/12 01:44:46;;;;;;;2.42;2.22;;;16.70;74.50;;;;;;5018660;28;20040;-78
2023/10/12 01:47:13;;;;;;;2.65;2.45;;;16.70;74.50;;;;;;5012110;28;20061;-78
2023/10/12 01:49:39;;;;;;;3.03;2.35;;;16.60;74.40;;;;;;5012260;28;20030;-78
2023/10/12 01:52:08;;;;;;;2.58;2.08;;;16.60;74.40;;;;;;5006429;28;20038;-78
2023/10/12 01:54:42;;;;;;;3.00;2.03;;;16.60;74.40;;;;;;5011396;28;20554;-78
2023/10/12 01:57:09;;;;;;;3.50;2.30;;;16.60;74.30;;;;;;5034623;28;20041;-78
2023/10/12 01:59:35;;;;;;;3.60;2.50;;;16.60;74.30;;;;;;5009636;28;20030;-78
2023/10/12 02:02:13;;;;;;;2.25;1.95;;;16.60;74.40;;;;;;5013918;28;20132;-78
2023/10/12 02:04:40;;;;;;;2.40;1.90;;;16.50;74.20;;;;;;5014282;28;20109;-78
2023/10/12 02:07:10;;;;;;;2.47;2.03;;;16.50;74.20;;;;;;5015527;28;20116;-79
2023/10/12 02:09:37;;;;;;;1.92;1.77;;;16.50;74.20;;;;;;5018551;28;20048;-79
2023/10/12 02:12:11;;;;;;;2.20;2.00;;;16.50;74.20;;;;;;5017703;28;20112;-81
2023/10/12 02:14:40;;;;;;;1.98;1.75;;;16.40;74.10;;;;;;5019181;28;20057;-79
2023/10/12 02:17:08;;;;;;;1.98;1.75;;;16.40;74.00;;;;;;5017126;28;20071;-79
2023/10/12 02:19:43;;;;;;;2.85;1.55;;;16.40;74.00;;;;;;5001830;28;20033;-79
2023/10/12 02:22:24;;;;;;;2.42;1.88;;;16.40;74.00;;;;;;5014964;28;20037;-79
2023/10/12 02:24:59;;;;;;;2.60;1.95;;;16.40;74.00;;;;;;5018269;28;20212;-79
2023/10/12 02:27:26;;;;;;;2.58;1.58;;;16.30;73.90;;;;;;5018686;28;20075;-78
2023/10/12 02:29:55;;;;;;;2.15;1.70;;;16.30;73.90;;;;;;5015468;28;20034;-78
2023/10/12 02:32:24;;;;;;;3.08;1.58;;;16.30;74.00;;;;;;5018623;28;20136;-78
2023/10/12 02:34:56;;;;;;;1.92;1.58;;;16.20;73.80;;;;;;5004390;28;20208;-78
2023/10/12 02:37:24;;;;;;;2.58;1.70;;;16.20;73.80;;;;;;5016522;28;20040;-78
2023/10/12 02:39:53;;;;;;;3.42;1.80;;;16.20;73.80;;;;;;5007129;28;20486;-78
2023/10/12 02:42:38;;;;;;;2.10;1.67;;;16.20;73.80;;;;;;5010597;28;20041;-77
2023/10/12 02:47:40;;;;;;;1.90;1.55;;;16.10;73.70;;;;;;5007847;28;20105;-78
2023/10/12 02:52:39;;;;;;;1.77;1.17;;;16.10;73.70;;;;;;5016543;28;20034;-77
2023/10/12 02:57:54;;;;;;;2.03;1.80;;;16.10;73.70;;;;;;5017206;28;20112;-78
2023/10/12 03:00:32;;;;;;;1.80;1.30;;;16.00;73.60;;;;;;5012103;28;20137;-78
2023/10/12 03:03:07;;;;;;;3.53;1.50;;;16.00;73.50;;;;;;5015101;28;20105;-78
2023/10/12 03:05:45;;;;;;;1.58;1.48;;;16.00;73.60;;;;;;4998649;28;20033;-78
2023/10/12 03:08:15;;;;;;;2.42;1.40;;;16.00;73.60;;;;;;5021434;28;20167;-77
2023/10/12 03:11:01;;;;;;;1.65;1.02;;;16.00;73.50;;;;;;5012838;28;20515;-77
2023/10/12 03:13:35;;;;;;;1.85;1.38;;;15.90;73.40;;;;;;5018559;28;20029;-78
2023/10/12 03:16:13;;;;;;;1.35;1.23;;;15.90;73.40;;;;;;5018131;28;20048;-77
2023/10/12 03:18:42;;;;;;;2.28;1.52;;;15.90;73.40;;;;;;5014262;28;20260;-77
2023/10/12 03:21:11;;;;;;;1.40;1.20;;;15.90;73.40;;;;;;5013249;28;20504;-77
2023/10/12 03:23:46;;;;;;;1.20;1.00;;;15.90;73.40;;;;;;5017845;28;20026;-78
2023/10/12 03:26:25;;;;;;;1.75;1.00;;;15.90;73.40;;;;;;5018955;28;20033;-78
2023/10/12 03:28:59;;;;;;;2.90;1.15;;;15.90;73.40;;;;;;5018353;28;20038;-78
2023/10/12 03:31:53;;;;;;;1.73;1.00;;;15.90;73.40;;;;;;5013163;28;20030;-78
2023/10/12 03:37:04;;;;;;;1.55;1.10;;;15.80;73.30;;;;;;5012705;28;20033;-78
2023/10/12 03:49:57;;;;;;;1.60;1.10;;;15.70;73.20;;;;;;5033986;28;20033;-78
2023/10/12 03:53:16;;;;;;;1.05;1.00;;;15.70;73.20;;;;;;5007489;28;20281;-78
2023/10/12 03:55:27;;;;;;;1.27;1.13;;;15.70;73.20;;;;;;5005651;28;20034;-78
2023/10/12 03:58:00;;;;;;;2.67;1.13;;;15.70;73.20;;;;;;5012565;28;20033;-79
2023/10/12 04:00:35;;;;;;;0.95;0.80;;;15.60;73.00;;;;;;5007124;28;20104;-79
2023/10/12 04:03:06;;;;;;;1.33;0.82;;;15.70;73.20;;;;;;5011379;28;20068;-78
2023/10/12 04:08:18;;;;;;;0.90;0.80;;;15.60;72.90;;;;;;5013299;28;20041;-77
2023/10/12 04:19:03;;;;;;;1.40;0.85;;;15.60;72.90;;;;;;5010464;28;20111;-77
2023/10/12 04:21:40;;;;;;;1.13;0.80;;;15.50;72.70;;;;;;5006619;28;20037;-76
2023/10/12 04:24:27;;;;;;;1.23;0.80;;;15.60;72.90;;;;;;5036631;28;20033;-76
2023/10/12 04:27:23;;;;;;;1.23;0.80;;;15.50;72.70;;;;;;5007123;28;20042;-75
2023/10/12 04:29:59;;;;;;;2.50;0.70;;;15.50;72.70;;;;;;5015410;28;20033;-76
2023/10/12 04:32:52;;;;;;;0.98;0.80;;;15.50;72.70;;;;;;5013279;28;20022;-76
2023/10/12 04:35:27;;;;;;;0.50;0.50;;;15.50;72.80;;;;;;5015917;28;20109;-76
2023/10/12 04:37:55;;;;;;;1.42;0.60;;;15.50;72.70;;;;;;5017385;28;20162;-77
2023/10/12 04:40:37;;;;;;;1.65;0.60;;;15.50;72.70;;;;;;5014803;28;20132;-77
2023/10/12 04:43:06;;;;;;;1.63;1.00;;;15.40;72.50;;;;;;5008424;28;20041;-76
2023/10/12 04:48:18;;;;;;;0.95;0.70;;;15.40;72.60;;;;;;5009693;28;20118;-76
2023/10/12 04:50:44;;;;;;;0.85;0.60;;;15.40;72.60;;;;;;5010369;28;20116;-77
2023/10/12 04:53:12;;;;;;;1.30;0.73;;;15.40;72.60;;;;;;5011672;28;20055;-77
2023/10/12 04:55:47;;;;;;;1.58;0.60;;;15.30;72.40;;;;;;5005078;28;20030;-77
2023/10/12 04:58:31;;;;;;;1.23;0.80;;;15.30;72.40;;;;;;5008177;28;20029;-77
2023/10/12 05:01:13;;;;;;;1.67;0.98;;;15.30;72.40;;;;;;5012529;28;20041;-77
2023/10/12 05:03:41;;;;;;;1.15;0.85;;;15.30;72.90;;;;;;5022375;28;20524;-77
2023/10/12 05:06:09;;;;;;;1.50;0.73;;;15.30;72.50;;;;;;5017274;28;20059;-76
2023/10/12 05:08:35;;;;;;;0.90;0.70;;;15.30;72.40;;;;;;5020077;28;20581;-76
2023/10/12 05:11:06;;;;;;;3.58;0.82;;;15.20;72.20;;;;;;5019271;28;20059;-77
2023/10/12 05:13:33;;;;;;;1.75;0.77;;;15.20;72.30;;;;;;5015086;28;20034;-76
2023/10/12 05:16:06;;;;;;;2.10;1.10;;;15.20;72.30;;;;;;5017631;28;20030;-76
2023/10/12 05:18:34;;;;;;;3.20;1.17;;;15.20;72.30;;;;;;5016428;28;20203;-77
2023/10/12 05:21:00;;;;;;;1.33;0.77;;;15.20;72.30;;;;;;5019934;28;20634;-76
2023/10/12 05:23:29;;;;;;;1.70;1.00;;;15.10;72.10;;;;;;5015305;28;20105;-76
2023/10/12 05:28:30;;;;;;;1.20;0.90;;;15.10;72.10;;;;;;5020991;28;20504;-76
2023/10/12 05:36:23;;;;;;;1.60;0.90;;;15.10;72.10;;;;;;5018875;28;22563;-77
2023/10/12 05:38:49;;;;;;;2.72;1.10;;;15.00;72.00;;;;;;5012894;28;20053;-76
2023/10/12 05:41:34;;;;;;;1.38;0.88;;;15.00;72.00;;;;;;5014783;28;20404;-75
2023/10/12 05:44:03;;;;;;;3.80;0.90;;;15.00;72.00;;;;;;5011308;28;20642;-75
2023/10/12 05:46:35;;;;;;;1.48;0.90;;;15.00;72.00;;;;;;5009505;28;20080;-75
2023/10/12 05:49:02;;;;;;;1.08;0.88;;;14.90;72.40;;;;;;5019758;28;20034;-75
2023/10/12 05:51:28;;;;;;;1.00;0.80;;;15.00;72.00;;;;;;5018381;28;20446;-77
2023/10/12 05:54:01;;;;;;;0.80;0.68;;;14.90;71.90;;;;;;5002547;28;20033;-76
2023/10/12 05:56:30;;;;;;;3.10;0.88;;;14.90;71.90;;;;;;5010978;28;20034;-76
2023/10/12 05:58:56;;;;;;;1.75;1.10;;;14.90;71.90;;;;;;4997524;28;20462;-75
2023/10/12 06:01:35;;;;;;;1.50;0.70;;;14.90;72.00;;;;;;5014934;28;20114;-74
2023/10/12 06:04:05;;;;;;;2.63;0.88;;;14.90;72.30;;;;;;5009988;28;20085;-74
2023/10/12 06:06:35;;;;;;;2.50;1.25;;;14.90;72.40;;;;;;5021722;28;20121;-73
2023/10/12 06:09:12;;;;;;;7.15;1.52;;;14.90;72.60;;;;;;5017930;28;20117;-75
2023/10/12 06:11:43;;;;;;;21.17;7.00;;;14.90;72.80;;;;;;5018357;28;20030;-76
2023/10/12 06:14:10;;;;;;;17.73;5.85;;;14.90;73.00;;;;;;5045821;28;20300;-73
2023/10/12 06:16:40;;;;;;;13.82;4.47;;;14.90;73.20;;;;;;5019917;28;20108;-74
2023/10/12 06:22:19;;;;;;;11.60;3.57;;;14.90;73.50;;;;;;5037443;28;20559;-73
2023/10/12 06:24:49;;;;;;;10.30;2.85;;;15.00;73.80;;;;;;5020698;28;20843;-74
2023/10/12 06:29:48;;;;;;;6.53;2.58;;;15.00;74.10;;;;;;5021252;28;20519;-77
2023/10/12 06:32:21;;;;;;;4.22;1.85;;;15.00;74.30;;;;;;5016061;28;20029;-77
2023/10/12 06:38:15;;;;;;;5.03;2.17;;;15.00;74.70;;;;;;5011571;28;20299;-76
2023/10/12 06:45:55;;;;;;;3.88;1.30;;;15.00;75.00;;;;;;5005143;28;20153;-73
2023/10/12 06:51:02;;;;;;;3.97;1.33;;;15.00;75.20;;;;;;5012230;28;20057;-73
2023/10/12 06:53:34;;;;;;;3.20;1.23;;;15.00;75.20;;;;;;5013862;28;20034;-75
2023/10/12 07:04:14;;;;;;;3.45;1.42;;;15.10;75.80;;;;;;5017686;28;20055;-74
2023/10/12 07:07:27;;;;;;;3.53;1.40;;;15.10;75.80;;;;;;5010052;28;20080;-74
2023/10/12 07:09:44;;;;;;;3.85;1.40;;;15.10;75.90;;;;;;5005291;28;20337;-74
2023/10/12 07:12:17;;;;;;;4.95;1.30;;;15.10;75.90;;;;;;5002589;28;20040;-75
2023/10/12 07:14:47;;;;;;;3.67;1.10;;;15.10;75.90;;;;;;5014489;28;20152;-75
2023/10/12 07:17:16;;;;;;;2.30;1.10;;;15.10;76.00;;;;;;5015092;28;20025;-75
2023/10/12 07:19:50;;;;;;;3.38;1.20;;;15.10;76.10;;;;;;5017666;28;20252;-75
2023/10/12 07:22:18;;;;;;;5.63;1.48;;;15.10;76.00;;;;;;5008849;28;20034;-75
2023/10/12 07:24:45;;;;;;;2.78;1.20;;;15.10;76.00;;;;;;5018741;28;20408;-75
2023/10/12 07:27:12;;;;;;;2.47;1.20;;;15.10;76.00;;;;;;5016490;28;20075;-74
2023/10/12 07:29:44;;;;;;;1.20;1.10;;;15.20;76.20;;;;;;5003636;28;20068;-73
2023/10/12 07:34:57;;;;;;;2.97;1.08;;;15.20;76.20;;;;;;5015240;28;20590;-77
2023/10/12 07:37:24;;;;;;;2.08;1.00;;;15.20;76.10;;;;;;5012581;28;20524;-75
2023/10/12 07:39:51;;;;;;;3.10;1.25;;;15.20;76.00;;;;;;5018466;28;20048;-75
2023/10/12 07:42:27;;;;;;;3.15;1.20;;;15.20;75.90;;;;;;5019297;28;20575;-75
2023/10/12 07:44:54;;;;;;;3.15;1.63;;;15.20;75.80;;;;;;5006920;28;20235;-76
2023/10/12 07:47:40;;;;;;;2.15;1.27;;;15.20;75.70;;;;;;5020900;28;20060;-75
2023/10/12 07:50:12;;;;;;;2.30;1.40;;;15.20;75.70;;;;;;5014374;28;20033;-75
2023/10/12 07:52:39;;;;;;;1.50;1.20;;;15.10;75.40;;;;;;5025193;28;20022;-75
2023/10/12 07:55:17;;;;;;;2.85;1.67;;;15.10;75.30;;;;;;5011113;28;20030;-75
2023/10/12 07:57:47;;;;;;;6.35;1.40;;;15.20;75.40;;;;;;5014583;28;20033;-75
2023/10/12 08:06:06;;;;;;;2.63;1.65;;;15.20;75.10;;;;;;5012639;28;20058;-75
2023/10/12 08:13:14;;;;;;;2.85;2.03;;;15.30;75.00;;;;;;5012394;28;20538;-74
2023/10/12 08:21:31;;;;;;;3.47;2.45;;;15.40;74.60;;;;;;5015974;28;20513;-76
2023/10/12 08:31:46;;;;;;;4.88;3.05;;;15.70;74.20;;;;;;5015821;28;20039;-75
2023/10/12 08:34:41;;;;;;;4.60;2.53;;;15.80;74.20;;;;;;5017169;28;20049;-76
2023/10/12 08:39:50;;;;;;;2.40;2.20;;;15.90;73.90;;;;;;5027586;28;20050;-75
2023/10/12 08:45:09;;;;;;;2.53;2.22;;;15.90;73.70;;;;;;5011785;28;20090;-74
2023/10/12 08:52:52;;;;;;;4.20;2.35;;;15.90;73.40;;;;;;5016360;28;20047;-75
2023/10/12 08:55:24;;;;;;;3.03;2.45;;;15.90;73.40;;;;;;5019780;28;20493;-75
2023/10/12 08:58:14;;;;;;;3.10;2.30;;;15.90;73.30;;;;;;5018333;28;20393;-75
2023/10/12 09:00:44;;;;;;;5.45;2.28;;;15.90;73.30;;;;;;5021929;28;20040;-75
2023/10/12 09:05:54;;;;;;;3.45;2.97;;;15.90;73.20;;;;;;5024781;28;20025;-75
2023/10/12 09:10:51;;;;;;;3.55;2.65;;;16.00;73.30;;;;;;5017667;28;20033;-75
2023/10/12 09:13:33;;;;;;;5.70;2.67;;;16.00;73.20;;;;;;5022625;28;20030;-75
2023/10/12 09:16:02;;;;;;;3.15;2.47;;;16.00;73.10;;;;;;5021737;28;20082;-74
2023/10/12 09:18:41;;;;;;;3.90;2.88;;;16.00;73.00;;;;;;5021196;28;20036;-75
2023/10/12 09:23:48;;;;;;;4.82;2.75;;;16.10;73.00;;;;;;5017005;28;20037;-73
2023/10/12 09:31:15;;;;;;;3.97;2.55;;;16.20;72.80;;;;;;5016368;28;20114;-74
2023/10/12 09:33:45;;;;;;;4.18;2.85;;;16.30;72.90;;;;;;5015323;28;20021;-74
2023/10/12 09:36:11;;;;;;;4.53;2.47;;;16.30;72.70;;;;;;5014728;28;20045;-75
2023/10/12 09:38:38;;;;;;;5.25;2.33;;;16.40;72.80;;;;;;5021371;28;20124;-75
2023/10/12 09:41:09;;;;;;;4.68;2.55;;;16.40;72.70;;;;;;4997261;28;20052;-75
2023/10/12 09:43:40;;;;;;;7.75;4.95;;;16.40;72.50;;;;;;5005275;28;20029;-77
2023/10/12 09:46:09;;;;;;;11.38;4.93;;;16.50;72.60;;;;;;5014399;28;20025;-76
2023/10/12 09:48:40;;;;;;;8.18;4.22;;;16.50;72.50;;;;;;5017934;28;20033;-76
2023/10/12 09:51:15;;;;;;;16.00;5.78;;;16.50;72.90;;;;;;5016860;28;20060;-75
2023/10/12 09:53:44;;;;;;;9.98;4.07;;;16.60;72.40;;;;;;5015109;28;20370;-76
2023/10/12 09:56:15;;;;;;;9.15;4.50;;;16.60;72.30;;;;;;5013250;28;20108;-74
2023/10/12 09:58:51;;;;;;;6.10;3.78;;;16.60;72.20;;;;;;5023161;28;20632;-74
2023/10/12 10:01:25;;;;;;;5.95;3.58;;;16.60;72.10;;;;;;5006162;28;20037;-74
2023/10/12 10:04:05;;;;;;;8.15;4.13;;;16.70;72.30;;;;;;5010460;28;20066;-74
2023/10/12 10:06:37;;;;;;;7.38;3.03;;;16.70;72.20;;;;;;5015950;28;20041;-75
2023/10/12 10:09:38;;;;;;;7.03;3.95;;;16.70;72.10;;;;;;5012524;28;20034;-75
2023/10/12 10:11:59;;;;;;;5.00;3.63;;;16.70;72.00;;;;;;5005423;28;20058;-75
2023/10/12 10:14:33;;;;;;;6.47;3.45;;;16.80;72.10;;;;;;5005844;28;20048;-75
2023/10/12 10:17:01;;;;;;;6.00;3.38;;;16.80;72.00;;;;;;5006567;28;20076;-74
2023/10/12 10:19:30;;;;;;;4.60;3.15;;;16.80;71.90;;;;;;5005708;28;20030;-75
2023/10/12 10:22:05;;;;;;;6.22;3.30;;;16.80;71.90;;;;;;5009718;28;20259;-74
2023/10/12 10:24:45;;;;;;;5.00;3.38;;;16.80;71.90;;;;;;5010789;28;20030;-74
2023/10/12 10:27:16;;;;;;;4.07;2.83;;;16.80;71.80;;;;;;5017644;28;20116;-74
2023/10/12 10:29:53;;;;;;;5.60;3.03;;;16.80;71.70;;;;;;5009066;28;20112;-74
2023/10/12 10:32:38;;;;;;;8.95;3.63;;;16.90;71.90;;;;;;5013770;28;20083;-74
2023/10/12 10:35:18;;;;;;;5.75;3.10;;;16.90;71.80;;;;;;5013454;28;20112;-74
2023/10/12 10:37:58;;;;;;;6.65;3.40;;;16.90;71.80;;;;;;5013127;28;20041;-73
2023/10/12 10:40:45;;;;;;;6.45;3.15;;;16.80;71.70;;;;;;5005691;28;20134;-75
2023/10/12 10:43:14;;;;;;;7.75;3.47;;;16.90;71.80;;;;;;5009503;28;20103;-74
2023/10/12 10:45:56;;;;;;;5.00;3.58;;;16.90;71.80;;;;;;5013902;28;20100;-74
2023/10/12 10:48:23;;;;;;;5.57;3.45;;;16.90;71.70;;;;;;5008637;28;20037;-74
2023/10/12 10:50:51;;;;;;;6.07;3.42;;;16.80;71.50;;;;;;5014453;28;20037;-75
2023/10/12 10:53:20;;;;;;;5.43;3.08;;;16.80;71.50;;;;;;5015625;28;20273;-73
2023/10/12 10:55:50;;;;;;;5.20;3.50;;;16.80;71.50;;;;;;5011538;28;20594;-74
2023/10/12 10:58:19;;;;;;;5.25;3.47;;;16.80;71.50;;;;;;5003619;28;20512;-75
2023/10/12 11:00:46;;;;;;;6.70;3.60;;;16.80;71.50;;;;;;5016069;28;20761;-74
2023/10/12 11:03:22;;;;;;;5.03;3.55;;;16.80;71.50;;;;;;5005237;28;20033;-74
2023/10/12 11:05:48;;;;;;;7.47;3.35;;;16.80;71.50;;;;;;5015665;28;20455;-75
2023/10/12 11:08:22;;;;;;;7.40;3.60;;;16.80;71.50;;;;;;5012359;28;20060;-75
2023/10/12 11:13:33;;;;;;;9.02;4.45;;;16.80;71.50;;;;;;5018113;28;20048;-75
2023/10/12 11:16:20;;;;;;;6.57;3.42;;;16.80;71.50;;;;;;5016701;28;20040;-75
2023/10/12 11:18:48;;;;;;;6.00;3.22;;;16.90;71.60;;;;;;5009460;28;20552;-74
2023/10/12 11:21:15;;;;;;;6.90;2.95;;;16.90;71.50;;;;;;5012259;28;20519;-74
2023/10/12 11:23:44;;;;;;;6.60;3.60;;;17.00;71.60;;;;;;5015732;28;20034;-74
2023/10/12 11:26:17;;;;;;;6.35;3.42;;;17.00;71.60;;;;;;5012375;28;20492;-74
2023/10/12 11:28:45;;;;;;;6.22;4.07;;;17.10;71.60;;;;;;5009095;28;20034;-74
2023/10/12 11:31:30;;;;;;;6.88;3.38;;;17.10;71.50;;;;;;5015305;28;20041;-74
2023/10/12 11:33:58;;;;;;;6.75;3.20;;;17.10;71.50;;;;;;5015830;28;20319;-74
2023/10/12 11:36:25;;;;;;;5.47;3.40;;;17.10;71.40;;;;;;5017168;28;20094;-74
2023/10/12 11:39:10;;;;;;;6.30;3.00;;;17.20;71.60;;;;;;5016189;28;20060;-75
2023/10/12 11:41:36;;;;;;;3.17;2.92;;;17.20;71.50;;;;;;5013533;28;20060;-74
2023/10/12 11:44:07;;;;;;;6.05;2.80;;;17.20;71.50;;;;;;5007772;28;20905;-73
2023/10/12 11:46:43;;;;;;;4.45;2.83;;;17.30;71.70;;;;;;5010096;28;20503;-74
2023/10/12 11:49:13;;;;;;;4.53;3.03;;;17.30;71.50;;;;;;5011992;28;20033;-75
2023/10/12 11:51:50;;;;;;;3.35;3.05;;;17.40;71.60;;;;;;5009860;28;20025;-75
2023/10/12 11:54:19;;;;;;;3.97;2.78;;;17.40;71.50;;;;;;5004678;28;20037;-75
2023/10/12 11:56:49;;;;;;;5.07;3.13;;;17.50;71.60;;;;;;5013650;28;20331;-74
2023/10/12 11:59:30;;;;;;;4.22;2.88;;;17.50;71.50;;;;;;5007509;28;20045;-74
2023/10/12 12:02:03;;;;;;;4.32;2.58;;;17.50;71.40;;;;;;5010890;28;20049;-74
2023/10/12 12:04:39;;;;;;;3.38;2.85;;;17.60;71.50;;;;;;5007827;28;20369;-74
2023/10/12 12:07:10;;;;;;;3.58;2.28;;;17.60;71.40;;;;;;5006409;28;20036;-74
2023/10/12 12:09:40;;;;;;;3.42;2.03;;;17.70;71.60;;;;;;5011507;28;20381;-75
2023/10/12 12:12:12;;;;;;;4.47;2.58;;;17.70;71.50;;;;;;5011864;28;20038;-75
2023/10/12 12:14:39;;;;;;;2.53;2.22;;;17.70;72.00;;;;;;5011650;28;20056;-75
2023/10/12 12:17:05;;;;;;;4.65;2.65;;;17.70;71.40;;;;;;5030076;28;20038;-74
2023/10/12 12:19:33;;;;;;;2.67;2.08;;;17.70;71.40;;;;;;5012167;28;20147;-74
2023/10/12 12:21:59;;;;;;;3.15;2.15;;;17.70;71.40;;;;;;5013873;28;20057;-75
2023/10/12 12:24:29;;;;;;;2.97;1.90;;;17.80;71.50;;;;;;5015658;28;20489;-75
2023/10/12 12:26:55;;;;;;;4.03;1.95;;;17.80;71.50;;;;;;5023397;28;20075;-74
2023/10/12 12:29:25;;;;;;;2.67;1.80;;;17.80;71.50;;;;;;5018257;28;20025;-74
2023/10/12 12:31:52;;;;;;;2.47;1.80;;;17.90;71.60;;;;;;5026450;28;20048;-75
2023/10/12 12:34:38;;;;;;;4.25;1.88;;;17.90;71.60;;;;;;5021758;28;20033;-74
2023/10/12 12:37:05;;;;;;;2.35;1.92;;;17.90;71.50;;;;;;5027384;28;20037;-74
2023/10/12 12:39:35;;;;;;;3.55;1.67;;;17.90;71.60;;;;;;5014578;28;20046;-75
2023/10/12 12:42:02;;;;;;;2.40;1.70;;;17.90;71.50;;;;;;5011432;28;20544;-74
2023/10/12 12:44:28;;;;;;;2.75;1.85;;;18.00;71.60;;;;;;5014715;28;20025;-74
2023/10/12 12:46:55;;;;;;;3.25;1.67;;;18.00;71.60;;;;;;5021393;28;20506;-74
2023/10/12 12:49:24;;;;;;;1.35;1.20;;;18.00;71.50;;;;;;5021970;28;20128;-75
2023/10/12 12:51:50;;;;;;;3.25;1.50;;;18.00;71.50;;;;;;5017329;28;20104;-74
2023/10/12 12:54:16;;;;;;;2.00;1.65;;;18.10;71.70;;;;;;5019405;28;20047;-74
2023/10/12 12:56:42;;;;;;;2.67;1.67;;;18.10;71.60;;;;;;5017036;28;20040;-76
2023/10/12 12:59:10;;;;;;;3.67;1.88;;;18.10;71.60;;;;;;5030096;28;20977;-74
2023/10/12 13:01:39;;;;;;;1.95;1.27;;;18.10;71.40;;;;;;5018311;28;20561;-75
2023/10/12 13:04:05;;;;;;;2.75;1.48;;;18.20;71.60;;;;;;5024506;28;20041;-74
2023/10/12 13:06:33;;;;;;;1.88;1.60;;;18.20;72.10;;;;;;5026748;28;20043;-75
2023/10/12 13:09:01;;;;;;;1.83;1.50;;;18.20;71.60;;;;;;5021311;28;20618;-75
2023/10/12 13:11:27;;;;;;;2.28;1.80;;;18.20;72.10;;;;;;5022875;28;20032;-74
2023/10/12 13:13:53;;;;;;;2.65;1.80;;;18.30;71.70;;;;;;5020046;28;20106;-75
2023/10/12 13:16:19;;;;;;;2.05;1.52;;;18.30;71.60;;;;;;5005423;28;20414;-75
2023/10/12 13:18:48;;;;;;;1.73;1.63;;;18.30;71.50;;;;;;5018094;28;20025;-74
2023/10/12 13:21:14;;;;;;;2.08;1.88;;;18.30;71.50;;;;;;5016553;28;20553;-74
2023/10/12 13:23:42;;;;;;;1.73;1.55;;;18.30;71.40;;;;;;5013111;28;20072;-74
2023/10/12 13:26:10;;;;;;;2.53;1.80;;;18.30;71.50;;;;;;5021259;28;20030;-74
2023/10/12 13:28:38;;;;;;;3.47;1.63;;;18.40;71.60;;;;;;5016669;28;20156;-75
2023/10/12 13:31:05;;;;;;;2.35;1.42;;;18.40;71.50;;;;;;5017506;28;20556;-74
2023/10/12 13:33:31;;;;;;;2.03;1.60;;;18.50;71.60;;;;;;5015943;28;20033;-74
2023/10/12 13:35:58;;;;;;;1.88;1.70;;;18.50;71.40;;;;;;5017081;28;20041;-74
2023/10/12 13:38:29;;;;;;;2.45;2.03;;;18.50;71.30;;;;;;5016469;28;20053;-76
2023/10/12 13:40:57;;;;;;;2.00;1.80;;;18.60;71.40;;;;;;5018269;28;20297;-74
2023/10/12 13:43:26;;;;;;;4.55;2.25;;;18.60;71.40;;;;;;5008783;28;20455;-74
2023/10/12 13:45:57;;;;;;;4.10;2.10;;;18.60;71.40;;;;;;5016044;28;20386;-74
2023/10/12 13:48:25;;;;;;;2.33;2.00;;;18.60;71.30;;;;;;5017751;28;20433;-73
2023/10/12 13:51:08;;;;;;;4.20;1.95;;;18.70;71.40;;;;;;5015308;28;20037;-74
2023/10/12 13:53:37;;;;;;;3.05;2.20;;;18.70;71.40;;;;;;5018336;28;20120;-73
2023/10/12 13:56:08;;;;;;;3.15;2.03;;;18.80;71.40;;;;;;5015366;28;20066;-74
2023/10/12 13:58:35;;;;;;;2.50;2.05;;;18.80;71.30;;;;;;5012264;28;20091;-73
2023/10/12 14:01:05;;;;;;;2.22;2.03;;;18.90;71.40;;;;;;5032692;28;20457;-74
2023/10/12 14:03:38;;;;;;;2.17;1.80;;;18.90;71.30;;;;;;5017523;28;20022;-75
2023/10/12 14:06:06;;;;;;;2.13;1.80;;;19.00;71.40;;;;;;5016922;28;20041;-75
2023/10/12 14:08:40;;;;;;;2.13;1.80;;;19.00;71.30;;;;;;5014318;28;20033;-75
2023/10/12 14:11:06;;;;;;;3.38;3.08;;;19.00;71.30;;;;;;5013802;28;20037;-75
2023/10/12 14:13:33;;;;;;;2.53;1.63;;;19.00;71.30;;;;;;5013616;28;20036;-75
2023/10/12 14:16:00;;;;;;;2.33;1.85;;;19.00;71.30;;;;;;5015957;28;20047;-76
2023/10/12 14:18:28;;;;;;;1.65;1.52;;;19.00;71.30;;;;;;5015451;28;20108;-75
2023/10/12 14:20:55;;;;;;;2.50;1.70;;;19.00;71.30;;;;;;5011617;28;20041;-75
2023/10/12 14:23:29;;;;;;;2.35;1.27;;;19.00;71.50;;;;;;5013192;28;20022;-75
2023/10/12 14:25:58;;;;;;;2.42;1.50;;;19.00;71.60;;;;;;5016909;28;20132;-75
2023/10/12 14:28:31;;;;;;;1.48;1.23;;;19.00;71.60;;;;;;5011077;28;20037;-75
2023/10/12 14:30:57;;;;;;;1.95;1.40;;;19.00;71.80;;;;;;5011898;28;20056;-75
2023/10/12 14:33:30;;;;;;;2.00;1.60;;;19.00;71.80;;;;;;5010503;28;20042;-75
2023/10/12 14:35:56;;;;;;;2.78;1.42;;;19.00;71.80;;;;;;5019378;28;20034;-74
2023/10/12 14:38:22;;;;;;;1.85;1.75;;;19.00;71.90;;;;;;5012099;28;20524;-74
2023/10/12 14:40:50;;;;;;;2.80;1.70;;;19.00;71.90;;;;;;5012937;28;20052;-74
2023/10/12 14:43:17;;;;;;;2.90;1.23;;;19.00;71.90;;;;;;5015328;28;20496;-75
2023/10/12 14:45:55;;;;;;;2.13;1.80;;;19.00;72.00;;;;;;5014629;28;20033;-75
2023/10/12 14:48:22;;;;;;;1.60;1.50;;;19.00;72.10;;;;;;5013273;28;20033;-75
2023/10/12 14:51:07;;;;;;;7.07;1.90;;;19.00;72.10;;;;;;5017596;28;20135;-75
2023/10/12 14:53:35;;;;;;;3.13;1.83;;;19.00;72.20;;;;;;5016622;28;20098;-76
2023/10/12 14:56:05;;;;;;;1.70;1.60;;;19.00;72.20;;;;;;5017805;28;20033;-74
2023/10/12 14:58:35;;;;;;;3.83;2.40;;;19.00;72.20;;;;;;5013115;28;20048;-76
2023/10/12 15:01:10;;;;;;;3.40;2.33;;;19.00;72.30;;;;;;5017487;28;20175;-75
2023/10/12 15:03:37;;;;;;;3.80;1.83;;;18.90;72.20;;;;;;5014856;28;20073;-75
2023/10/12 15:06:06;;;;;;;1.90;1.80;;;18.90;72.30;;;;;;5020587;28;20041;-76
2023/10/12 15:08:36;;;;;;;1.88;1.77;;;18.90;72.40;;;;;;5015344;28;20029;-75
2023/10/12 15:11:05;;;;;;;2.17;1.70;;;18.90;72.40;;;;;;5012058;28;20041;-76
2023/10/12 15:13:37;;;;;;;2.33;2.13;;;18.90;72.50;;;;;;5010056;28;20076;-76
2023/10/12 15:16:09;;;;;;;2.28;1.85;;;18.90;72.50;;;;;;5018186;28;20033;-75